Upstream stations:
Downstream station:
SHEF ID: AMAT2 Canadian Rv nr Amarillo, TX
STATION TYPE:
Regulating: Stage = 13.00, Flow = 87096
PRECIP STAGE RIV-FLOW WTR-TEMP CONDUCT BAT-LOAD
in ft cfs F umho/cm volt
Ccp-Rev Ccp-Rev Ccp-Rev Ccp-Rev Ccp-Rev Ccp-Rev
(US/Central)
03/24 00:00 ---- 1.39 67 52.30 3 12.01
03/24 01:00 ---- 1.41 70 50.90 3 11.93
03/24 02:00 ---- 1.40 69 49.87 3 11.93
03/24 03:00 ---- 1.39 67 49.08 4 11.93
03/24 04:00 ---- 1.41 70 48.13 4 11.93
03/24 05:00 ---- 1.37 64 47.21 4 11.93
03/24 06:00 ---- 1.38 65 46.42 4 11.86
03/24 07:00 ---- 1.38 65 45.93 4 11.86
03/24 08:00 ---- 1.37 64 45.48 4 11.86
03/24 09:00 ---- 1.37 64 44.62 4 11.86
03/24 10:00 ---- 1.36 62 44.53 4 11.86
03/24 11:00 ---- 1.36 62 44.60 4 11.86
03/24 12:00 ---- 1.37 64 44.53 4 11.86
03/24 13:00 ---- 1.36 62 45.14 4 11.86
03/24 14:00 ---- 1.37 64 45.68 4 11.86
03/24 15:00 ---- 1.37 64 45.61 4 11.86
03/24 16:00 ---- 1.37 64 45.57 4 11.86
03/24 17:00 ---- 1.36 62 45.50 4 11.86
03/24 18:00 ---- 1.37 64 45.30 4 11.77
03/24 19:00 ---- 1.42 72 45.07 4 11.77
03/24 20:00 ---- 1.39 67 44.83 4 11.77
03/24 21:00 ---- 1.37 64 44.44 4 11.77
03/24 22:00 ---- 1.37 64 44.15 4 11.77
03/24 23:00 ---- 1.36 62 43.83 4 11.77